Lt Usodimare — IBPO — position and weather

sailwx.info

Track history (hours):
 
Tides and Currents Weather Stations Pressure Air Temp Water Temp Dewpoint Dewpoint Depression Visibility Wind Speed Wind Dir Waves Ship Positions

Lt Usodimare

Last reported at 2018-Jun-07 23:00 UTC. Time now 2018-Jun-19 14:24 UTC.
Position N 54°42' W 177°00'.
Warning: this ship's position is 11 days out of date.

Type: Ship (hazmat cat D). MMSI: 247009600.

Wind from 050 at 10 knots

Barometer 1012.0 mb
Air temperature 9.0 ° C
Water temperature 8.0 ° C

Date/timePositionNaut miles runAvg speedWind from/ knotsBaromVisibWave heightAir tempDewpointWater temp
2018-Jun-07 23:00N 54°42' W 177°00'   050 / 101012.0 9.0 8.0
2018-Jun-04 21:00N 50°00' W 148°36'   360 / 201025.0 5.4 10.0 9.0
2018-Jun-01 14:37N 38°10' W 125°20'213.4
2018-Jun-01 14:29N 38°10' W 125°18'713.4
2018-Jun-01 14:00N 38°10' W 125°10'713.2
2018-Jun-01 13:30N 38°10' W 125°01'713.3
2018-Jun-01 13:00N 38°10' W 124°53'713.2
2018-Jun-01 12:30N 38°10' W 124°45'713.1
2018-Jun-01 12:00N 38°10' W 124°36'713.0
2018-Jun-01 11:30N 38°10' W 124°28'713.3
2018-Jun-01 11:00N 38°10' W 124°19'713.3
2018-Jun-01 10:30N 38°10' W 124°11'713.2
2018-Jun-01 10:00N 38°10' W 124°03'713.3
2018-Jun-01 09:30N 38°10' W 123°54'713.2
2018-Jun-01 09:00N 38°10' W 123°46'713.4
2018-Jun-01 08:28N 38°10' W 123°36'613.6
2018-Jun-01 08:00N 38°10' W 123°29'612.2
2018-Jun-01 07:30N 38°10' W 123°21'5 9.7
2018-Jun-01 07:00N 38°06' W 123°17'5 9.8
2018-Jun-01 06:30N 38°02' W 123°13'5 9.7
2018-Jun-01 06:01N 37°59' W 123°09'5 9.8
2018-Jun-01 05:30N 37°56' W 123°03'5 9.6
2018-Jun-01 05:00N 37°54' W 122°58'5 9.7
2018-Jun-01 04:30N 37°51' W 122°53'5 9.7
2018-Jun-01 04:00N 37°49' W 122°47'5 9.9
2018-Jun-01 03:30N 37°46' W 122°42'5 9.9
2018-Jun-01 03:00N 37°46' W 122°36'713.6
2018-Jun-01 02:30N 37°49' W 122°28'510.5
2018-Jun-01 02:00N 37°48' W 122°22'1 2.6
2018-Jun-01 01:30N 37°48' W 122°20'0 0.0
2018-Jun-01 01:00N 37°48' W 122°20'0 0.0
2018-Jun-01 00:30N 37°48' W 122°20'0 0.0
2018-Jun-01 00:00N 37°48' W 122°20'0 0.0
2018-May-31 23:30N 37°48' W 122°20'0 0.0
2018-May-31 23:00N 37°48' W 122°20'0 0.0
2018-May-31 22:30N 37°48' W 122°20'0 0.0
2018-May-31 22:00N 37°48' W 122°20'0 0.0
2018-May-31 21:30N 37°48' W 122°20'0 0.0
2018-May-31 21:00N 37°48' W 122°20'0 0.0
2018-May-31 20:30N 37°48' W 122°20'0 0.0
2018-May-31 20:00N 37°48' W 122°20'0 0.0
2018-May-31 19:30N 37°48' W 122°20'0 0.0
2018-May-31 19:00N 37°48' W 122°20'0 0.0
2018-May-31 18:30N 37°48' W 122°20'0 0.0
2018-May-31 18:00N 37°48' W 122°20'0 0.0
2018-May-31 17:30N 37°48' W 122°20'0 0.0
2018-May-31 17:00N 37°48' W 122°20'0 0.0
2018-May-31 16:30N 37°48' W 122°20'0 0.0
2018-May-31 16:00N 37°48' W 122°20'0 0.0
2018-May-31 15:30N 37°48' W 122°20'0 0.0
2018-May-31 15:00N 37°48' W 122°20'0 0.0
2018-May-31 14:30N 37°48' W 122°20'0 0.0
2018-May-31 14:00N 37°48' W 122°20'0 0.0
2018-May-31 13:30N 37°48' W 122°20'0 0.0
2018-May-31 13:00N 37°48' W 122°20'0 0.0
2018-May-31 12:30N 37°48' W 122°20'0 0.0
2018-May-31 12:00N 37°48' W 122°20'0 0.0
2018-May-31 11:30N 37°48' W 122°20'0 0.0
2018-May-31 11:00N 37°48' W 122°20'0 0.0
2018-May-31 10:30N 37°48' W 122°20'0 0.0
2018-May-31 10:00N 37°48' W 122°20'0 0.0
2018-May-31 09:30N 37°48' W 122°20'0 0.0
2018-May-31 09:00N 37°48' W 122°20'0 0.0
2018-May-31 08:30N 37°48' W 122°20'0 0.0
2018-May-31 08:00N 37°48' W 122°20'0 0.0
2018-May-31 07:30N 37°48' W 122°20'0 0.0
2018-May-31 07:00N 37°48' W 122°20'0 0.0
2018-May-31 06:30N 37°48' W 122°20'0 0.0
2018-May-31 06:00N 37°48' W 122°20'0 0.0
2018-May-31 05:30N 37°48' W 122°20'0 0.0
2018-May-31 05:00N 37°48' W 122°20'0 0.0
2018-May-31 04:30N 37°48' W 122°20'0 0.0
2018-May-31 04:00N 37°48' W 122°20'0 0.0
2018-May-31 03:30N 37°48' W 122°20'0 0.0
2018-May-31 03:00N 37°48' W 122°20'0 0.0
2018-May-31 02:30N 37°48' W 122°20'0 0.0
2018-May-31 02:00N 37°48' W 122°20'0 0.0
2018-May-31 01:30N 37°48' W 122°20'0 0.0
2018-May-31 01:00N 37°48' W 122°20'0 0.0
2018-May-31 00:30N 37°48' W 122°20'0 0.0
2018-May-31 00:00N 37°48' W 122°20'0 0.0
2018-May-30 23:30N 37°48' W 122°20'0 0.1
2018-May-30 23:00N 37°49' W 122°20'0 0.5
2018-May-30 22:30N 37°49' W 122°20'4 7.6
2018-May-30 22:00N 37°49' W 122°25'612.1
2018-May-30 21:30N 37°47' W 122°32'612.8
2018-May-30 21:01N 37°45' W 122°40'4 7.2
2018-May-30 20:30N 37°41' W 122°40'3 6.3
2018-May-30 20:01N 37°38' W 122°39'4 8.1
2018-May-30 19:30N 37°34' W 122°39'4 8.2
2018-May-30 19:01N 37°30' W 122°40'4 8.2
2018-May-30 18:30N 37°26' W 122°40'4 8.1
2018-May-30 18:00N 37°22' W 122°39'4 7.8
2018-May-30 17:30N 37°18' W 122°39'4 8.8
2018-May-30 17:00N 37°14' W 122°39'612.8
2018-May-30 16:30N 37°07' W 122°38'713.7
2018-May-30 16:00N 37°01' W 122°35'713.9
2018-May-30 15:30N 36°55' W 122°31'714.2
2018-May-30 15:00N 36°48' W 122°28'714.1
2018-May-30 14:30N 36°41' W 122°24'914.3
2018-May-30 13:54N 36°33' W 122°20'1614.4
2018-May-30 12:47N 36°19' W 122°13'514.4
2018-May-30 12:25N 36°14' W 122°10'1014.1
2018-May-30 11:42N 36°05' W 122°03'3014.0
2018-May-30 09:33N 35°39' W 121°44'314.1
2018-May-30 09:20N 35°37' W 121°42'1314.3
2018-May-30 08:26N 35°26' W 121°35'614.8
2018-May-30 08:00N 35°20' W 121°31'714.8
2018-May-30 07:30N 35°14' W 121°26'714.8
2018-May-30 07:00N 35°07' W 121°21'714.8
2018-May-30 06:30N 35°01' W 121°17'815.0
2018-May-30 06:00N 34°55' W 121°12'714.3
2018-May-30 05:30N 34°48' W 121°08'713.6
2018-May-30 05:00N 34°43' W 121°04'612.9
2018-May-30 04:30N 34°37' W 120°60'612.7
2018-May-30 04:00N 34°32' W 120°56'612.1
2018-May-30 03:30N 34°27' W 120°52'713.1
2018-May-30 02:59N 34°24' W 120°44'713.1
2018-May-30 02:26N 34°22' W 120°35'613.1
2018-May-30 01:59N 34°21' W 120°28'612.7
2018-May-30 01:30N 34°19' W 120°21'1013.4
2018-May-30 00:45N 34°17' W 120°10'313.4
2018-May-30 00:30N 34°16' W 120°06'712.8
2018-May-29 23:56N 34°14' W 119°57'612.5
2018-May-29 23:29N 34°12' W 119°51'712.8
2018-May-29 22:57N 34°10' W 119°43'613.3
2018-May-29 22:29N 34°09' W 119°35'713.2
2018-May-29 21:55N 34°07' W 119°27'613.1
2018-May-29 21:28N 34°05' W 119°20'613.2
2018-May-29 21:00N 34°03' W 119°13'713.0
2018-May-29 20:30N 33°60' W 119°06'611.8
2018-May-29 19:58N 33°57' W 118°60'710.7
2018-May-29 19:21N 33°53' W 118°53'410.8
2018-May-29 19:00N 33°52' W 118°49'510.8
2018-May-29 18:30N 33°49' W 118°43'511.0
2018-May-29 18:00N 33°46' W 118°37'611.2
2018-May-29 17:30N 33°43' W 118°32'510.9
2018-May-29 17:00N 33°41' W 118°26'510.7
2018-May-29 16:30N 33°38' W 118°20'4 8.6
2018-May-29 16:00N 33°39' W 118°15'4 7.6
2018-May-29 15:30N 33°43' W 118°16'2 3.0
2018-May-29 14:58N 33°45' W 118°16'0 0.0
2018-May-29 14:28N 33°45' W 118°16'0 0.0
2018-May-29 13:58N 33°45' W 118°16'0 0.0
2018-May-29 13:28N 33°45' W 118°16'0 0.0
2018-May-29 12:58N 33°45' W 118°16'0 0.0
2018-May-29 12:28N 33°45' W 118°16'0 0.0
2018-May-29 11:58N 33°45' W 118°16'0 0.0
2018-May-29 11:28N 33°45' W 118°16'0 0.0
2018-May-29 10:58N 33°45' W 118°16'0 0.0
2018-May-29 10:28N 33°45' W 118°16'0 0.0
2018-May-29 09:58N 33°45' W 118°16'0 0.0
2018-May-29 09:25N 33°45' W 118°16'0 0.0
2018-May-29 08:58N 33°45' W 118°16'0 0.0
2018-May-29 08:28N 33°45' W 118°16'0 0.0
2018-May-29 07:58N 33°45' W 118°16'0 0.0
2018-May-29 07:28N 33°45' W 118°16'0 0.0
2018-May-29 06:58N 33°45' W 118°16'0 0.0
2018-May-29 06:28N 33°45' W 118°16'0 0.0
2018-May-29 05:58N 33°45' W 118°16'0 0.0
2018-May-29 05:28N 33°45' W 118°16'0 0.0
2018-May-29 04:58N 33°45' W 118°16'0 0.0
2018-May-29 04:28N 33°45' W 118°16'0 0.0
2018-May-29 03:58N 33°45' W 118°16'0 0.0
2018-May-29 03:28N 33°45' W 118°16'0 0.0
2018-May-29 02:58N 33°45' W 118°16'0 0.0
2018-May-29 02:28N 33°45' W 118°16'0 0.0
2018-May-29 01:58N 33°45' W 118°16'0 0.0
2018-May-29 01:28N 33°45' W 118°16'0 0.0
2018-May-29 00:58N 33°45' W 118°16'0 0.0
2018-May-29 00:28N 33°45' W 118°16'0 0.0
2018-May-28 23:58N 33°45' W 118°16'0 0.0
2018-May-28 23:28N 33°45' W 118°16'  
Track history (hours):
 
Tides and Currents Weather Stations Pressure Air Temp Water Temp Dewpoint Dewpoint Depression Visibility Wind Speed Wind Dir Waves Ship Positions

Lt Usodimare

Last reported at 2018-Jun-07 23:00 UTC. Time now 2018-Jun-19 14:24 UTC.
Position N 54°42' W 177°00'.
Warning: this ship's position is 11 days out of date.

Type: Ship (hazmat cat D). MMSI: 247009600.

Wind from 050 at 10 knots

Barometer 1012.0 mb
Air temperature 9.0 ° C
Water temperature 8.0 ° C

Date/timePositionNaut miles runAvg speedWind from/ knotsBaromVisibWave heightAir tempDewpointWater temp
2018-Jun-07 23:00N 54°42' W 177°00'   050 / 101012.0 9.0 8.0
2018-Jun-04 21:00N 50°00' W 148°36'   360 / 201025.0 5.4 10.0 9.0
2018-Jun-01 14:37N 38°10' W 125°20'213.4
2018-Jun-01 14:29N 38°10' W 125°18'713.4
2018-Jun-01 14:00N 38°10' W 125°10'713.2
2018-Jun-01 13:30N 38°10' W 125°01'713.3
2018-Jun-01 13:00N 38°10' W 124°53'713.2
2018-Jun-01 12:30N 38°10' W 124°45'713.1
2018-Jun-01 12:00N 38°10' W 124°36'713.0
2018-Jun-01 11:30N 38°10' W 124°28'713.3
2018-Jun-01 11:00N 38°10' W 124°19'713.3
2018-Jun-01 10:30N 38°10' W 124°11'713.2
2018-Jun-01 10:00N 38°10' W 124°03'713.3
2018-Jun-01 09:30N 38°10' W 123°54'713.2
2018-Jun-01 09:00N 38°10' W 123°46'713.4
2018-Jun-01 08:28N 38°10' W 123°36'613.6
2018-Jun-01 08:00N 38°10' W 123°29'612.2
2018-Jun-01 07:30N 38°10' W 123°21'5 9.7
2018-Jun-01 07:00N 38°06' W 123°17'5 9.8
2018-Jun-01 06:30N 38°02' W 123°13'5 9.7
2018-Jun-01 06:01N 37°59' W 123°09'5 9.8
2018-Jun-01 05:30N 37°56' W 123°03'5 9.6
2018-Jun-01 05:00N 37°54' W 122°58'5 9.7
2018-Jun-01 04:30N 37°51' W 122°53'5 9.7
2018-Jun-01 04:00N 37°49' W 122°47'5 9.9
2018-Jun-01 03:30N 37°46' W 122°42'5 9.9
2018-Jun-01 03:00N 37°46' W 122°36'713.6
2018-Jun-01 02:30N 37°49' W 122°28'510.5
2018-Jun-01 02:00N 37°48' W 122°22'1 2.6
2018-Jun-01 01:30N 37°48' W 122°20'0 0.0
2018-Jun-01 01:00N 37°48' W 122°20'0 0.0
2018-Jun-01 00:30N 37°48' W 122°20'0 0.0
2018-Jun-01 00:00N 37°48' W 122°20'0 0.0
2018-May-31 23:30N 37°48' W 122°20'0 0.0
2018-May-31 23:00N 37°48' W 122°20'0 0.0
2018-May-31 22:30N 37°48' W 122°20'0 0.0
2018-May-31 22:00N 37°48' W 122°20'0 0.0
2018-May-31 21:30N 37°48' W 122°20'0 0.0
2018-May-31 21:00N 37°48' W 122°20'0 0.0
2018-May-31 20:30N 37°48' W 122°20'0 0.0
2018-May-31 20:00N 37°48' W 122°20'0 0.0
2018-May-31 19:30N 37°48' W 122°20'0 0.0
2018-May-31 19:00N 37°48' W 122°20'0 0.0
2018-May-31 18:30N 37°48' W 122°20'0 0.0
2018-May-31 18:00N 37°48' W 122°20'0 0.0
2018-May-31 17:30N 37°48' W 122°20'0 0.0
2018-May-31 17:00N 37°48' W 122°20'0 0.0
2018-May-31 16:30N 37°48' W 122°20'0 0.0
2018-May-31 16:00N 37°48' W 122°20'0 0.0
2018-May-31 15:30N 37°48' W 122°20'0 0.0
2018-May-31 15:00N 37°48' W 122°20'0 0.0
2018-May-31 14:30N 37°48' W 122°20'0 0.0
2018-May-31 14:00N 37°48' W 122°20'0 0.0
2018-May-31 13:30N 37°48' W 122°20'0 0.0
2018-May-31 13:00N 37°48' W 122°20'0 0.0
2018-May-31 12:30N 37°48' W 122°20'0 0.0
2018-May-31 12:00N 37°48' W 122°20'0 0.0
2018-May-31 11:30N 37°48' W 122°20'0 0.0
2018-May-31 11:00N 37°48' W 122°20'0 0.0
2018-May-31 10:30N 37°48' W 122°20'0 0.0
2018-May-31 10:00N 37°48' W 122°20'0 0.0
2018-May-31 09:30N 37°48' W 122°20'0 0.0
2018-May-31 09:00N 37°48' W 122°20'0 0.0
2018-May-31 08:30N 37°48' W 122°20'0 0.0
2018-May-31 08:00N 37°48' W 122°20'0 0.0
2018-May-31 07:30N 37°48' W 122°20'0 0.0
2018-May-31 07:00N 37°48' W 122°20'0 0.0
2018-May-31 06:30N 37°48' W 122°20'0 0.0
2018-May-31 06:00N 37°48' W 122°20'0 0.0
2018-May-31 05:30N 37°48' W 122°20'0 0.0
2018-May-31 05:00N 37°48' W 122°20'0 0.0
2018-May-31 04:30N 37°48' W 122°20'0 0.0
2018-May-31 04:00N 37°48' W 122°20'0 0.0
2018-May-31 03:30N 37°48' W 122°20'0 0.0
2018-May-31 03:00N 37°48' W 122°20'0 0.0
2018-May-31 02:30N 37°48' W 122°20'0 0.0
2018-May-31 02:00N 37°48' W 122°20'0 0.0
2018-May-31 01:30N 37°48' W 122°20'0 0.0
2018-May-31 01:00N 37°48' W 122°20'0 0.0
2018-May-31 00:30N 37°48' W 122°20'0 0.0
2018-May-31 00:00N 37°48' W 122°20'0 0.0
2018-May-30 23:30N 37°48' W 122°20'0 0.1
2018-May-30 23:00N 37°49' W 122°20'0 0.5
2018-May-30 22:30N 37°49' W 122°20'4 7.6
2018-May-30 22:00N 37°49' W 122°25'612.1
2018-May-30 21:30N 37°47' W 122°32'612.8
2018-May-30 21:01N 37°45' W 122°40'4 7.2
2018-May-30 20:30N 37°41' W 122°40'3 6.3
2018-May-30 20:01N 37°38' W 122°39'4 8.1
2018-May-30 19:30N 37°34' W 122°39'4 8.2
2018-May-30 19:01N 37°30' W 122°40'4 8.2
2018-May-30 18:30N 37°26' W 122°40'4 8.1
2018-May-30 18:00N 37°22' W 122°39'4 7.8
2018-May-30 17:30N 37°18' W 122°39'4 8.8
2018-May-30 17:00N 37°14' W 122°39'612.8
2018-May-30 16:30N 37°07' W 122°38'713.7
2018-May-30 16:00N 37°01' W 122°35'713.9
2018-May-30 15:30N 36°55' W 122°31'714.2
2018-May-30 15:00N 36°48' W 122°28'714.1
2018-May-30 14:30N 36°41' W 122°24'914.3
2018-May-30 13:54N 36°33' W 122°20'1614.4
2018-May-30 12:47N 36°19' W 122°13'514.4
2018-May-30 12:25N 36°14' W 122°10'1014.1
2018-May-30 11:42N 36°05' W 122°03'3014.0
2018-May-30 09:33N 35°39' W 121°44'314.1
2018-May-30 09:20N 35°37' W 121°42'1314.3
2018-May-30 08:26N 35°26' W 121°35'614.8
2018-May-30 08:00N 35°20' W 121°31'714.8
2018-May-30 07:30N 35°14' W 121°26'714.8
2018-May-30 07:00N 35°07' W 121°21'714.8
2018-May-30 06:30N 35°01' W 121°17'815.0
2018-May-30 06:00N 34°55' W 121°12'714.3
2018-May-30 05:30N 34°48' W 121°08'713.6
2018-May-30 05:00N 34°43' W 121°04'612.9
2018-May-30 04:30N 34°37' W 120°60'612.7
2018-May-30 04:00N 34°32' W 120°56'612.1
2018-May-30 03:30N 34°27' W 120°52'713.1
2018-May-30 02:59N 34°24' W 120°44'713.1
2018-May-30 02:26N 34°22' W 120°35'613.1
2018-May-30 01:59N 34°21' W 120°28'612.7
2018-May-30 01:30N 34°19' W 120°21'1013.4
2018-May-30 00:45N 34°17' W 120°10'313.4
2018-May-30 00:30N 34°16' W 120°06'712.8
2018-May-29 23:56N 34°14' W 119°57'612.5
2018-May-29 23:29N 34°12' W 119°51'712.8
2018-May-29 22:57N 34°10' W 119°43'613.3
2018-May-29 22:29N 34°09' W 119°35'713.2
2018-May-29 21:55N 34°07' W 119°27'613.1
2018-May-29 21:28N 34°05' W 119°20'613.2
2018-May-29 21:00N 34°03' W 119°13'713.0
2018-May-29 20:30N 33°60' W 119°06'611.8
2018-May-29 19:58N 33°57' W 118°60'710.7
2018-May-29 19:21N 33°53' W 118°53'410.8
2018-May-29 19:00N 33°52' W 118°49'510.8
2018-May-29 18:30N 33°49' W 118°43'511.0
2018-May-29 18:00N 33°46' W 118°37'611.2
2018-May-29 17:30N 33°43' W 118°32'510.9
2018-May-29 17:00N 33°41' W 118°26'510.7
2018-May-29 16:30N 33°38' W 118°20'4 8.6
2018-May-29 16:00N 33°39' W 118°15'4 7.6
2018-May-29 15:30N 33°43' W 118°16'2 3.0
2018-May-29 14:58N 33°45' W 118°16'0 0.0
2018-May-29 14:28N 33°45' W 118°16'0 0.0
2018-May-29 13:58N 33°45' W 118°16'0 0.0
2018-May-29 13:28N 33°45' W 118°16'0 0.0
2018-May-29 12:58N 33°45' W 118°16'0 0.0
2018-May-29 12:28N 33°45' W 118°16'0 0.0
2018-May-29 11:58N 33°45' W 118°16'0 0.0
2018-May-29 11:28N 33°45' W 118°16'0 0.0
2018-May-29 10:58N 33°45' W 118°16'0 0.0
2018-May-29 10:28N 33°45' W 118°16'0 0.0
2018-May-29 09:58N 33°45' W 118°16'0 0.0
2018-May-29 09:25N 33°45' W 118°16'0 0.0
2018-May-29 08:58N 33°45' W 118°16'0 0.0
2018-May-29 08:28N 33°45' W 118°16'0 0.0
2018-May-29 07:58N 33°45' W 118°16'0 0.0
2018-May-29 07:28N 33°45' W 118°16'0 0.0
2018-May-29 06:58N 33°45' W 118°16'0 0.0
2018-May-29 06:28N 33°45' W 118°16'0 0.0
2018-May-29 05:58N 33°45' W 118°16'0 0.0
2018-May-29 05:28N 33°45' W 118°16'0 0.0
2018-May-29 04:58N 33°45' W 118°16'0 0.0
2018-May-29 04:28N 33°45' W 118°16'0 0.0
2018-May-29 03:58N 33°45' W 118°16'0 0.0
2018-May-29 03:28N 33°45' W 118°16'0 0.0
2018-May-29 02:58N 33°45' W 118°16'0 0.0
2018-May-29 02:28N 33°45' W 118°16'0 0.0
2018-May-29 01:58N 33°45' W 118°16'0 0.0
2018-May-29 01:28N 33°45' W 118°16'0 0.0
2018-May-29 00:58N 33°45' W 118°16'0 0.0
2018-May-29 00:28N 33°45' W 118°16'0 0.0
2018-May-28 23:58N 33°45' W 118°16'0 0.0
2018-May-28 23:28N 33°45' W 118°16'  

Dump ship's entire track history